Time;durP1;ratioP1;P1;durP2;ratioP2;P2;SDS_P1;SDS_P2;PMS_P1;PMS_P2;Temp;Humidity;BMP_temperature;BMP_pressure;BME280_temperature;BME280_humidity;BME280_pressure;Samples;Min_cycle;Max_cycle;Signal;HPM_P1;HPM_P2
2022/05/20 00:01:55;;;;;;;15.93;10.70;;;18.20;99.90;;;;;;5007879;28;20473;-72
2022/05/20 00:04:22;;;;;;;22.50;12.77;;;18.10;99.90;;;;;;5009201;28;20564;-72
2022/05/20 00:06:49;;;;;;;20.20;13.10;;;18.10;99.90;;;;;;5012743;28;20483;-72
2022/05/20 00:09:15;;;;;;;19.63;12.40;;;18.20;99.90;;;;;;5010315;28;20531;-72
2022/05/20 00:11:42;;;;;;;24.60;13.30;;;18.20;99.90;;;;;;5015119;28;20528;-72
2022/05/20 00:14:10;;;;;;;16.30;11.80;;;18.30;99.90;;;;;;5014682;28;20456;-72
2022/05/20 00:16:37;;;;;;;17.67;12.23;;;18.30;99.90;;;;;;5018430;28;20553;-72
2022/05/20 00:19:04;;;;;;;18.90;12.40;;;18.00;99.90;;;;;;5013660;28;20916;-72
2022/05/20 00:21:31;;;;;;;20.07;12.00;;;17.90;99.90;;;;;;5020049;28;20471;-72
2022/05/20 00:23:58;;;;;;;21.50;14.00;;;17.80;99.90;;;;;;5008988;28;20484;-73
2022/05/20 00:26:25;;;;;;;21.63;12.13;;;17.90;99.90;;;;;;5012682;28;20541;-72
2022/05/20 00:28:53;;;;;;;22.70;13.17;;;18.10;99.90;;;;;;5011508;28;20459;-72
2022/05/20 00:31:22;;;;;;;19.50;12.77;;;18.00;99.90;;;;;;5019127;28;21176;-73
2022/05/20 00:33:49;;;;;;;18.63;11.73;;;17.90;99.90;;;;;;5014960;28;20513;-73
2022/05/20 00:36:17;;;;;;;23.77;14.03;;;17.90;99.90;;;;;;5006428;28;20483;-71
2022/05/20 00:38:43;;;;;;;22.63;11.33;;;17.80;99.90;;;;;;5005505;28;20500;-71
2022/05/20 00:41:11;;;;;;;19.40;12.63;;;17.80;99.90;;;;;;5011555;28;20499;-72
2022/05/20 00:43:39;;;;;;;25.60;13.67;;;17.60;99.90;;;;;;5013876;28;20941;-71
2022/05/20 00:46:12;;;;;;;22.07;13.47;;;17.60;99.90;;;;;;5008852;28;20589;-71
2022/05/20 00:48:43;;;;;;;19.70;14.03;;;17.50;99.90;;;;;;5012177;28;20460;-70
2022/05/20 00:51:15;;;;;;;23.70;13.17;;;17.40;99.90;;;;;;5008725;28;20443;-71
2022/05/20 00:53:47;;;;;;;25.03;13.13;;;17.40;99.90;;;;;;5003983;28;20472;-71
2022/05/20 00:56:18;;;;;;;23.00;13.10;;;17.50;99.90;;;;;;5005499;28;21031;-71
2022/05/20 00:58:45;;;;;;;22.80;14.70;;;17.60;99.90;;;;;;5015986;28;20478;-71
2022/05/20 01:01:12;;;;;;;20.30;11.47;;;17.60;99.90;;;;;;5007324;28;20466;-71
2022/05/20 01:03:42;;;;;;;21.70;12.33;;;17.50;99.90;;;;;;5008528;28;20495;-72
2022/05/20 01:06:10;;;;;;;22.17;12.23;;;17.50;99.90;;;;;;5003797;28;20486;-72
2022/05/20 01:08:39;;;;;;;19.20;11.57;;;17.50;99.90;;;;;;5007206;28;20451;-73
2022/05/20 01:11:06;;;;;;;21.83;13.63;;;17.50;99.90;;;;;;5005634;28;20463;-72
2022/05/20 01:13:34;;;;;;;19.07;13.10;;;17.50;99.90;;;;;;5009930;28;20464;-72
2022/05/20 01:16:03;;;;;;;19.20;13.33;;;17.40;99.90;;;;;;5012286;28;20551;-72
2022/05/20 01:18:32;;;;;;;26.30;13.73;;;17.30;99.90;;;;;;5015234;28;20488;-72
2022/05/20 01:21:01;;;;;;;20.00;13.10;;;17.30;99.90;;;;;;5004754;28;20460;-72
2022/05/20 01:23:29;;;;;;;26.30;12.53;;;17.30;99.90;;;;;;5006261;28;20532;-72
2022/05/20 01:25:59;;;;;;;22.83;12.97;;;17.20;99.90;;;;;;5009932;28;20563;-73
2022/05/20 01:28:28;;;;;;;17.50;11.93;;;17.20;99.90;;;;;;5007414;28;20986;-72
2022/05/20 01:31:00;;;;;;;23.00;14.47;;;17.20;99.90;;;;;;5013638;28;20462;-73
2022/05/20 01:33:31;;;;;;;24.03;13.40;;;17.30;99.90;;;;;;5013140;28;20468;-72
2022/05/20 01:35:59;;;;;;;25.43;15.40;;;17.50;99.90;;;;;;5008738;28;20811;-72
2022/05/20 01:38:26;;;;;;;18.83;12.20;;;17.50;99.90;;;;;;5004161;28;20576;-73
2022/05/20 01:40:59;;;;;;;22.60;14.80;;;17.50;99.90;;;;;;5004083;28;20493;-73
2022/05/20 01:43:51;;;;;;;28.37;15.40;;;17.50;99.90;;;;;;5009225;28;20519;-73
2022/05/20 01:46:31;;;;;;;27.83;12.27;;;17.60;99.90;;;;;;5003601;28;20480;-73
2022/05/20 01:49:11;;;;;;;24.07;12.50;;;17.50;99.90;;;;;;5006766;28;20467;-73
2022/05/20 01:51:46;;;;;;;20.13;12.70;;;17.10;99.90;;;;;;5010667;28;20469;-72
2022/05/20 01:54:20;;;;;;;20.80;12.00;;;17.00;99.90;;;;;;5003325;28;20482;-72
2022/05/20 01:56:51;;;;;;;18.13;11.60;;;17.10;99.90;;;;;;5006756;28;20990;-72
2022/05/20 01:59:23;;;;;;;24.37;14.20;;;17.10;99.90;;;;;;5001953;28;20475;-72
2022/05/20 02:01:54;;;;;;;22.00;12.77;;;17.10;99.90;;;;;;5006010;28;20467;-73
2022/05/20 02:04:26;;;;;;;21.80;12.27;;;17.00;99.90;;;;;;5004949;28;22241;-73
2022/05/20 02:07:00;;;;;;;20.67;14.77;;;17.00;99.90;;;;;;5008199;28;20479;-72
2022/05/20 02:09:32;;;;;;;23.33;14.00;;;17.00;99.90;;;;;;5010215;28;20475;-73
2022/05/20 02:12:00;;;;;;;25.27;14.70;;;17.10;99.90;;;;;;5008862;28;20456;-73
2022/05/20 02:14:33;;;;;;;23.83;14.77;;;17.00;99.90;;;;;;5005734;28;20492;-72
2022/05/20 02:17:07;;;;;;;21.43;13.67;;;16.60;99.90;;;;;;5010485;28;20514;-73
2022/05/20 02:19:38;;;;;;;22.67;14.30;;;16.50;99.90;;;;;;5039668;22;20538;-76
2022/05/20 02:22:10;;;;;;;23.50;14.43;;;16.70;99.90;;;;;;5036858;28;20535;-76
2022/05/20 02:24:40;;;;;;;28.30;16.00;;;16.70;99.90;;;;;;5037887;28;20465;-74
2022/05/20 02:27:14;;;;;;;26.50;15.20;;;16.60;99.90;;;;;;5033826;28;21033;-74
2022/05/20 02:29:48;;;;;;;24.70;14.10;;;16.60;99.90;;;;;;5015404;28;20477;-74
2022/05/20 02:32:21;;;;;;;24.60;15.17;;;16.60;99.90;;;;;;5012322;28;20443;-74
2022/05/20 02:34:53;;;;;;;28.83;16.30;;;16.50;99.90;;;;;;5015061;28;20457;-74
2022/05/20 02:37:23;;;;;;;18.57;12.07;;;16.20;99.90;;;;;;5014625;28;21082;-75
2022/05/20 02:39:50;;;;;;;28.63;14.30;;;16.30;99.90;;;;;;5011451;28;20491;-75
2022/05/20 02:42:19;;;;;;;25.90;13.43;;;16.30;99.90;;;;;;5013996;28;20972;-74
2022/05/20 02:44:45;;;;;;;27.50;13.97;;;16.30;99.90;;;;;;5010452;28;20472;-74
2022/05/20 02:47:14;;;;;;;19.23;11.90;;;16.30;99.90;;;;;;5010717;28;20992;-74
2022/05/20 02:49:41;;;;;;;22.40;12.60;;;16.30;99.90;;;;;;5015075;28;20486;-74
2022/05/20 02:52:09;;;;;;;17.77;12.47;;;16.30;99.90;;;;;;5020483;28;20468;-74
2022/05/20 02:54:36;;;;;;;27.53;14.03;;;16.30;99.90;;;;;;5014924;28;20513;-74
2022/05/20 02:57:03;;;;;;;20.63;14.53;;;16.30;99.90;;;;;;5013265;28;20456;-74
2022/05/20 03:05:00;;;;;;;23.97;13.73;;;16.10;99.90;;;;;;5010788;28;20457;-74
2022/05/20 03:07:27;;;;;;;26.50;14.73;;;16.10;99.90;;;;;;5013777;28;21009;-74
2022/05/20 03:09:54;;;;;;;31.27;15.93;;;15.70;99.90;;;;;;5013112;28;20518;-74
2022/05/20 03:12:20;;;;;;;21.40;12.67;;;15.60;99.90;;;;;;5011668;28;20528;-75
2022/05/20 03:14:48;;;;;;;20.60;11.30;;;15.40;99.90;;;;;;5004619;28;20535;-76
2022/05/20 03:17:15;;;;;;;32.03;14.40;;;15.40;99.90;;;;;;5009409;28;20468;-75
2022/05/20 03:19:42;;;;;;;26.33;14.23;;;15.60;99.90;;;;;;5017266;28;20494;-75
2022/05/20 03:22:09;;;;;;;27.03;14.17;;;15.80;99.90;;;;;;5011225;28;20481;-74
2022/05/20 03:24:37;;;;;;;24.77;13.20;;;15.80;99.90;;;;;;5013032;28;20483;-75
2022/05/20 03:27:04;;;;;;;24.23;14.03;;;15.90;99.90;;;;;;5006451;28;20801;-75
2022/05/20 03:29:32;;;;;;;23.53;13.90;;;15.90;99.90;;;;;;5007379;28;20476;-74
2022/05/20 03:32:00;;;;;;;33.47;14.30;;;15.90;99.90;;;;;;4997966;28;20464;-75
2022/05/20 03:34:28;;;;;;;22.20;13.10;;;15.90;99.90;;;;;;5012826;28;20544;-73
2022/05/20 03:36:55;;;;;;;23.97;15.03;;;16.10;99.90;;;;;;4997407;28;20463;-74
2022/05/20 03:39:24;;;;;;;26.10;14.93;;;16.10;99.90;;;;;;5021044;28;20489;-75
2022/05/20 03:41:50;;;;;;;22.60;12.87;;;16.20;99.90;;;;;;5017651;28;20458;-75
2022/05/20 03:44:18;;;;;;;25.20;14.53;;;16.30;99.90;;;;;;5016582;28;20464;-74
2022/05/20 03:46:47;;;;;;;35.40;15.10;;;16.20;99.90;;;;;;5015601;28;20464;-74
2022/05/20 03:49:16;;;;;;;26.97;14.90;;;16.20;99.90;;;;;;5016790;28;20532;-75
2022/05/20 03:51:45;;;;;;;22.17;13.00;;;16.20;99.90;;;;;;5025139;28;20533;-74
2022/05/20 03:54:12;;;;;;;21.10;13.00;;;16.10;99.90;;;;;;5016275;28;20458;-73
2022/05/20 03:56:40;;;;;;;24.47;12.60;;;16.10;99.90;;;;;;5021157;28;20494;-74
2022/05/20 03:59:08;;;;;;;25.00;12.40;;;16.00;99.90;;;;;;5019959;28;21007;-74
2022/05/20 04:04:20;;;;;;;23.83;13.00;;;15.90;99.90;;;;;;5012863;28;20521;-75
2022/05/20 04:06:47;;;;;;;18.60;12.67;;;16.10;99.90;;;;;;5022209;28;20521;-74
2022/05/20 04:09:14;;;;;;;23.73;14.30;;;16.10;99.90;;;;;;5020569;28;20479;-75
2022/05/20 04:11:41;;;;;;;23.43;12.40;;;16.20;99.90;;;;;;5012528;28;21050;-75
2022/05/20 04:14:07;;;;;;;24.57;13.80;;;16.20;99.90;;;;;;5003511;28;20438;-75
2022/05/20 04:16:34;;;;;;;21.73;13.07;;;16.30;99.90;;;;;;5011791;28;20470;-75
2022/05/20 04:19:01;;;;;;;21.30;12.93;;;16.30;99.90;;;;;;5022057;28;20485;-74
2022/05/20 04:21:29;;;;;;;25.97;13.67;;;16.40;99.90;;;;;;5020140;28;20464;-75
2022/05/20 04:23:56;;;;;;;24.33;13.10;;;16.50;99.90;;;;;;5019316;28;20497;-75
2022/05/20 04:26:23;;;;;;;22.63;13.33;;;16.50;99.90;;;;;;5022498;28;20464;-75
2022/05/20 04:28:49;;;;;;;28.40;14.50;;;16.50;99.90;;;;;;5016426;28;20482;-75
2022/05/20 04:31:19;;;;;;;24.43;14.10;;;16.40;99.90;;;;;;5006892;28;20471;-75
2022/05/20 04:33:46;;;;;;;20.87;12.63;;;16.50;99.90;;;;;;5024123;28;20983;-75
2022/05/20 04:36:13;;;;;;;22.20;14.50;;;16.70;99.90;;;;;;5009669;28;20467;-75
2022/05/20 04:38:41;;;;;;;23.57;14.43;;;16.70;99.90;;;;;;5012182;28;21063;-76
2022/05/20 04:49:20;;;;;;;24.27;14.33;;;16.90;99.90;;;;;;5015548;28;20494;-75
2022/05/20 04:51:47;;;;;;;24.40;16.50;;;17.00;99.90;;;;;;5026438;28;20470;-76
2022/05/20 04:57:00;;;;;;;22.43;13.53;;;17.00;99.90;;;;;;5019072;28;20467;-76
2022/05/20 04:59:26;;;;;;;23.33;15.53;;;17.00;99.90;;;;;;5013904;28;20546;-76
2022/05/20 05:01:53;;;;;;;25.87;15.47;;;17.00;99.90;;;;;;5022309;28;20455;-76
2022/05/20 05:04:21;;;;;;;27.20;14.30;;;17.10;99.90;;;;;;5026437;28;20463;-75
2022/05/20 05:06:48;;;;;;;18.20;11.87;;;17.20;99.90;;;;;;5025591;28;20458;-76
2022/05/20 05:09:16;;;;;;;23.17;14.17;;;17.20;99.90;;;;;;5023060;28;20487;-76
2022/05/20 05:11:43;;;;;;;23.70;12.93;;;17.40;99.90;;;;;;5023056;28;20517;-76
2022/05/20 05:14:11;;;;;;;24.27;13.57;;;17.50;99.90;;;;;;5018807;28;20464;-76
2022/05/20 05:16:39;;;;;;;22.37;13.10;;;17.50;99.90;;;;;;5012816;28;20474;-76
2022/05/20 05:19:06;;;;;;;21.67;12.17;;;17.50;99.90;;;;;;5024423;28;20997;-74
2022/05/20 05:21:33;;;;;;;23.10;12.60;;;17.30;99.90;;;;;;5023516;28;20473;-76
2022/05/20 05:24:00;;;;;;;22.53;13.53;;;17.30;99.90;;;;;;5019642;28;20549;-76
2022/05/20 05:26:32;;;;;;;25.30;14.30;;;17.40;99.90;;;;;;5015165;28;20460;-75
2022/05/20 05:28:59;;;;;;;21.83;12.33;;;17.60;99.90;;;;;;5017363;28;20487;-75
2022/05/20 05:31:26;;;;;;;19.97;12.30;;;17.60;99.90;;;;;;5019829;28;20494;-75
2022/05/20 05:33:53;;;;;;;21.10;12.93;;;17.60;99.90;;;;;;5022017;28;20515;-74
2022/05/20 05:36:21;;;;;;;27.27;12.27;;;17.90;99.90;;;;;;5023369;28;20574;-76
2022/05/20 05:38:48;;;;;;;19.90;12.77;;;18.20;99.90;;;;;;5015725;28;20613;-74
2022/05/20 05:41:17;;;;;;;19.47;13.07;;;18.40;99.90;;;;;;5020479;28;20475;-74
2022/05/20 05:43:46;;;;;;;20.90;13.00;;;18.80;99.90;;;;;;5017445;28;20462;-76
2022/05/20 05:46:12;;;;;;;20.10;12.70;;;18.60;99.90;;;;;;5020870;28;20476;-74
2022/05/20 05:48:39;;;;;;;18.97;13.40;;;18.70;99.90;;;;;;5018497;28;20483;-74
2022/05/20 05:51:06;;;;;;;20.30;14.47;;;18.50;99.90;;;;;;5020655;28;20529;-75
2022/05/20 05:53:36;;;;;;;16.57;11.60;;;18.80;99.90;;;;;;5018899;28;20466;-75
2022/05/20 05:56:05;;;;;;;25.87;13.77;;;18.80;99.90;;;;;;5017011;28;20464;-75
2022/05/20 05:58:34;;;;;;;29.57;15.23;;;18.80;99.90;;;;;;5015387;28;21145;-75
2022/05/20 06:01:02;;;;;;;27.80;14.60;;;18.90;99.90;;;;;;5016272;28;20589;-74
2022/05/20 06:03:29;;;;;;;20.67;13.40;;;19.20;99.90;;;;;;5023971;28;20959;-75
2022/05/20 06:05:56;;;;;;;19.80;13.73;;;19.60;99.90;;;;;;5017200;28;20482;-75
2022/05/20 06:08:23;;;;;;;20.23;11.43;;;19.40;99.90;;;;;;5015389;28;20538;-74
2022/05/20 06:10:50;;;;;;;19.93;13.70;;;19.40;99.90;;;;;;5018056;28;20460;-75
2022/05/20 06:13:23;;;;;;;22.10;12.87;;;19.50;99.90;;;;;;5017448;28;20472;-74
2022/05/20 06:15:50;;;;;;;21.80;15.40;;;19.40;99.90;;;;;;5021696;28;20521;-74
2022/05/20 06:18:18;;;;;;;28.10;11.60;;;19.40;99.90;;;;;;5019814;28;20905;-75
2022/05/20 06:20:45;;;;;;;25.97;12.47;;;19.30;99.90;;;;;;5017614;28;20525;-75
2022/05/20 06:23:12;;;;;;;17.70;12.27;;;19.10;99.90;;;;;;5016758;28;20957;-75
2022/05/20 06:25:38;;;;;;;22.30;14.50;;;19.40;99.90;;;;;;5019279;28;20460;-76
2022/05/20 06:28:07;;;;;;;22.23;14.03;;;20.10;99.90;;;;;;5020083;28;20459;-75
2022/05/20 06:30:34;;;;;;;20.37;15.10;;;20.70;99.90;;;;;;5020608;28;20545;-75
2022/05/20 06:33:03;;;;;;;23.87;14.27;;;21.10;99.90;;;;;;5021373;28;20482;-75
2022/05/20 06:40:59;;;;;;;23.00;15.43;;;20.90;99.90;;;;;;4970951;28;20463;-74
2022/05/20 06:43:27;;;;;;;21.47;14.80;;;20.60;99.90;;;;;;5020790;28;21247;-75
2022/05/20 06:45:56;;;;;;;26.00;15.10;;;20.80;99.90;;;;;;5020341;28;21099;-75
2022/05/20 06:48:23;;;;;;;23.40;14.70;;;20.70;99.90;;;;;;5015776;28;20506;-76
2022/05/20 06:50:51;;;;;;;22.33;13.90;;;21.10;99.90;;;;;;5015700;28;20861;-75
2022/05/20 06:53:18;;;;;;;18.80;14.27;;;21.50;99.90;;;;;;5018406;28;20474;-75
2022/05/20 06:55:44;;;;;;;22.87;12.80;;;21.60;99.90;;;;;;5019806;28;20581;-75
2022/05/20 06:58:11;;;;;;;20.33;13.13;;;21.50;99.90;;;;;;5015011;28;20463;-76
2022/05/20 07:00:38;;;;;;;27.37;15.10;;;21.40;99.90;;;;;;5019174;28;20947;-76
2022/05/20 07:03:05;;;;;;;23.77;15.50;;;21.70;99.90;;;;;;5018708;28;21113;-76
2022/05/20 07:05:31;;;;;;;20.57;13.57;;;22.50;99.90;;;;;;5017325;28;20547;-76
2022/05/20 07:07:59;;;;;;;25.37;17.20;;;22.90;99.90;;;;;;5016366;28;20463;-76
2022/05/20 07:10:26;;;;;;;22.70;14.93;;;23.00;99.90;;;;;;5021203;28;20888;-76
2022/05/20 07:12:53;;;;;;;23.60;15.53;;;23.00;99.90;;;;;;5020890;28;20513;-76
2022/05/20 07:15:20;;;;;;;25.63;14.33;;;23.30;99.90;;;;;;5017676;28;20450;-76
2022/05/20 07:17:48;;;;;;;22.50;14.73;;;23.40;99.90;;;;;;5016336;28;20481;-76
2022/05/20 07:20:14;;;;;;;21.23;15.30;;;23.60;99.90;;;;;;5014713;28;20485;-76
2022/05/20 07:22:41;;;;;;;21.20;14.90;;;23.70;99.90;;;;;;5016073;28;20483;-77
2022/05/20 07:25:10;;;;;;;22.33;15.73;;;23.70;99.90;;;;;;5021685;28;20465;-77
2022/05/20 07:27:37;;;;;;;21.13;15.60;;;23.60;99.90;;;;;;5017257;28;20459;-77
2022/05/20 07:30:04;;;;;;;28.20;14.73;;;24.00;99.90;;;;;;5015945;28;20949;-76
2022/05/20 07:32:31;;;;;;;26.80;16.13;;;23.80;99.90;;;;;;5019540;28;20459;-76
2022/05/20 07:34:57;;;;;;;20.93;14.63;;;24.10;99.90;;;;;;5018100;28;20969;-77
2022/05/20 07:37:24;;;;;;;22.00;14.53;;;24.30;99.90;;;;;;5019029;28;21391;-76
2022/05/20 07:39:51;;;;;;;22.47;14.50;;;24.00;99.90;;;;;;5017424;28;20482;-76
2022/05/20 07:42:19;;;;;;;22.07;14.10;;;24.00;99.90;;;;;;5016010;28;20823;-76
2022/05/20 07:44:45;;;;;;;18.70;13.63;;;24.10;99.90;;;;;;5014483;28;20490;-77
2022/05/20 07:47:12;;;;;;;19.67;14.67;;;24.20;99.90;;;;;;5018773;28;21006;-77
2022/05/20 07:49:39;;;;;;;26.67;14.57;;;24.90;99.90;;;;;;5018553;28;20496;-77
2022/05/20 07:52:08;;;;;;;19.53;14.07;;;25.40;99.90;;;;;;5013149;28;20485;-77
2022/05/20 07:54:40;;;;;;;21.07;17.70;;;25.30;99.90;;;;;;5018672;28;20543;-77
2022/05/20 07:57:13;;;;;;;19.67;14.70;;;24.60;99.90;;;;;;5017222;28;20467;-76
2022/05/20 07:59:45;;;;;;;19.50;14.23;;;24.90;99.90;;;;;;5009536;28;20494;-76
2022/05/20 08:02:14;;;;;;;17.63;11.93;;;24.40;99.90;;;;;;5008123;28;20467;-76
2022/05/20 08:04:55;;;;;;;17.30;10.93;;;24.40;99.90;;;;;;5020251;28;20467;-76
2022/05/20 08:07:25;;;;;;;16.30;9.93;;;24.20;99.90;;;;;;5019029;28;20463;-76
2022/05/20 08:09:52;;;;;;;23.40;12.97;;;24.00;99.90;;;;;;5014437;28;20570;-77
2022/05/20 08:12:18;;;;;;;22.07;12.73;;;24.30;99.90;;;;;;5019159;28;20459;-77
2022/05/20 08:14:46;;;;;;;22.57;13.57;;;24.60;99.90;;;;;;5016526;28;20467;-76
2022/05/20 08:17:13;;;;;;;18.03;14.27;;;25.50;99.90;;;;;;5018387;28;20467;-77
2022/05/20 08:19:40;;;;;;;18.77;12.30;;;26.20;99.90;;;;;;5016356;28;20534;-76
2022/05/20 08:22:07;;;;;;;18.30;12.23;;;26.50;99.90;;;;;;5018656;28;20455;-77
2022/05/20 08:24:34;;;;;;;20.10;13.50;;;26.10;99.90;;;;;;5020689;28;20510;-77
2022/05/20 08:27:00;;;;;;;18.83;13.13;;;26.60;99.90;;;;;;5018864;28;20962;-77
2022/05/20 08:29:27;;;;;;;19.03;13.30;;;26.40;99.90;;;;;;5015228;28;20545;-77
2022/05/20 08:31:55;;;;;;;14.37;10.13;;;27.00;99.90;;;;;;5019459;28;20467;-76
2022/05/20 08:34:22;;;;;;;13.87;10.43;;;27.70;99.90;;;;;;5025170;28;20469;-77
2022/05/20 08:36:48;;;;;;;12.60;9.80;;;27.70;99.90;;;;;;5018135;28;20455;-77
2022/05/20 08:39:15;;;;;;;12.83;8.00;;;27.90;99.90;;;;;;5016085;28;20506;-76
2022/05/20 08:41:45;;;;;;;17.00;10.60;;;27.00;99.90;;;;;;5020118;28;20890;-77
2022/05/20 08:44:17;;;;;;;14.43;9.93;;;26.20;99.90;;;;;;5021594;28;20468;-76
2022/05/20 08:46:45;;;;;;;17.37;9.03;;;27.10;99.90;;;;;;5019940;28;20471;-77
2022/05/20 08:49:16;;;;;;;14.30;10.83;;;27.40;99.90;;;;;;5023408;28;20471;-76
2022/05/20 08:51:47;;;;;;;17.40;9.97;;;27.90;99.90;;;;;;5022867;28;20464;-77
2022/05/20 08:54:14;;;;;;;12.40;9.17;;;28.30;99.90;;;;;;5019252;28;20499;-77
2022/05/20 08:56:41;;;;;;;11.90;9.00;;;27.90;99.90;;;;;;5019180;28;20953;-76
2022/05/20 08:59:12;;;;;;;16.57;10.50;;;28.00;99.90;;;;;;5023006;28;20515;-76
2022/05/20 09:01:40;;;;;;;13.70;10.90;;;27.70;99.90;;;;;;5023359;28;20459;-77
2022/05/20 09:04:08;;;;;;;15.27;10.33;;;27.60;99.90;;;;;;5047936;22;20663;-72
2022/05/20 09:06:40;;;;;;;15.43;10.63;;;27.70;99.90;;;;;;5042008;28;20516;-72
2022/05/20 09:09:11;;;;;;;26.73;12.87;;;27.00;99.90;;;;;;5040976;28;20738;-71
2022/05/20 09:11:40;;;;;;;18.17;12.97;;;26.60;99.90;;;;;;5042676;28;20460;-71
2022/05/20 09:16:59;;;;;;;13.47;10.47;;;25.70;99.90;;;;;;5043344;28;21275;-71
2022/05/20 09:19:28;;;;;;;18.10;11.73;;;25.60;99.90;;;;;;5042589;28;20487;-72
2022/05/20 09:22:08;;;;;;;15.07;12.00;;;25.70;99.90;;;;;;5033903;28;21055;-72
2022/05/20 09:24:40;;;;;;;17.10;11.63;;;25.60;99.90;;;;;;5035188;28;20523;-72
2022/05/20 09:27:09;;;;;;;20.30;10.80;;;25.30;99.90;;;;;;5039804;28;20497;-71
2022/05/20 09:29:40;;;;;;;15.53;9.60;;;25.00;99.90;;;;;;5040579;28;20899;-72
2022/05/20 09:32:15;;;;;;;18.40;11.63;;;25.10;99.90;;;;;;5034115;28;20471;-71
2022/05/20 09:34:43;;;;;;;18.50;10.57;;;24.40;99.90;;;;;;5039221;28;20477;-71
2022/05/20 09:37:20;;;;;;;16.03;9.77;;;24.10;99.90;;;;;;5042953;28;20470;-71
2022/05/20 09:39:49;;;;;;;15.97;10.17;;;24.20;99.90;;;;;;5033418;28;20573;-73
2022/05/20 09:42:18;;;;;;;14.60;9.90;;;24.30;99.90;;;;;;5040292;28;20463;-73
2022/05/20 09:44:47;;;;;;;21.53;11.27;;;24.50;99.90;;;;;;5040918;28;20508;-73
2022/05/20 09:47:23;;;;;;;16.80;11.00;;;25.50;99.90;;;;;;5036840;28;20521;-73
2022/05/20 09:49:53;;;;;;;16.20;10.90;;;26.40;99.90;;;;;;5040177;28;20570;-72
2022/05/20 09:52:31;;;;;;;15.27;9.97;;;26.90;99.90;;;;;;5046098;28;20749;-73
2022/05/20 09:55:01;;;;;;;14.90;9.50;;;27.20;99.90;;;;;;5045316;28;20482;-73
2022/05/20 09:57:36;;;;;;;20.00;12.57;;;27.20;99.90;;;;;;5039460;28;20462;-73
2022/05/20 10:00:07;;;;;;;15.43;10.63;;;26.80;99.90;;;;;;5034480;28;20538;-72
2022/05/20 10:02:38;;;;;;;16.77;12.33;;;27.00;99.90;;;;;;5040017;28;20934;-72
2022/05/20 10:05:14;;;;;;;15.33;12.03;;;27.30;99.90;;;;;;5042666;28;20523;-73
2022/05/20 10:07:54;;;;;;;14.87;10.07;;;27.50;99.90;;;;;;5041143;28;21035;-73
2022/05/20 10:10:30;;;;;;;15.80;11.80;;;27.90;99.90;;;;;;5033582;28;20463;-72
2022/05/20 10:13:00;;;;;;;17.47;11.37;;;27.50;99.90;;;;;;5033482;28;20538;-72
2022/05/20 10:15:31;;;;;;;18.20;12.50;;;28.10;99.90;;;;;;5033326;28;20516;-72
2022/05/20 10:18:07;;;;;;;17.20;13.23;;;28.30;99.90;;;;;;5032870;28;20603;-72
2022/05/20 10:20:38;;;;;;;23.60;11.70;;;29.20;99.90;;;;;;5035476;28;21086;-71
2022/05/20 10:23:13;;;;;;;16.50;12.17;;;30.00;99.90;;;;;;5030826;28;20471;-72
2022/05/20 10:25:48;;;;;;;16.50;11.60;;;30.30;99.90;;;;;;5040059;28;20462;-73
2022/05/20 10:34:10;;;;;;;13.33;9.00;;;30.90;99.90;;;;;;5039411;28;20486;-71
2022/05/20 10:36:45;;;;;;;17.40;11.37;;;29.90;99.90;;;;;;5040242;28;20458;-73
2022/05/20 10:39:26;;;;;;;17.40;11.80;;;28.00;99.90;;;;;;5033342;28;20463;-72
2022/05/20 10:42:11;;;;;;;15.97;13.73;;;27.00;99.90;;;;;;5034013;28;20462;-73
2022/05/20 10:51:04;;;;;;;22.30;14.43;;;27.10;99.90;;;;;;5026560;28;20494;-72
2022/05/20 10:53:39;;;;;;;19.40;13.27;;;26.30;99.90;;;;;;5036120;28;21007;-72
2022/05/20 10:56:33;;;;;;;17.30;11.90;;;27.30;99.90;;;;;;5039902;28;20580;-72
2022/05/20 10:59:25;;;;;;;18.90;12.00;;;27.40;99.90;;;;;;5043305;28;20515;-71
2022/05/20 11:02:02;;;;;;;21.10;14.33;;;26.10;99.90;;;;;;5032522;28;20464;-72
2022/05/20 11:04:50;;;;;;;22.10;14.27;;;26.50;99.90;;;;;;5032975;28;20502;-72
2022/05/20 11:07:40;;;;;;;18.70;12.07;;;27.60;99.90;;;;;;5044388;28;20544;-72
2022/05/20 11:10:44;;;;;;;18.00;12.63;;;29.20;99.90;;;;;;5039873;28;20471;-72
2022/05/20 11:13:28;;;;;;;18.73;13.47;;;29.60;99.90;;;;;;5033343;28;20484;-73
2022/05/20 11:16:12;;;;;;;24.80;12.83;;;29.50;99.90;;;;;;5040997;28;20470;-71
2022/05/20 11:19:01;;;;;;;15.47;10.57;;;29.90;99.90;;;;;;5032748;28;20567;-72
2022/05/20 11:21:58;;;;;;;18.27;14.77;;;31.30;99.90;;;;;;5033325;28;20498;-72
2022/05/20 11:24:50;;;;;;;19.63;11.37;;;31.40;99.90;;;;;;5037402;28;20482;-72
2022/05/20 11:27:33;;;;;;;17.80;13.70;;;30.60;99.90;;;;;;5035803;28;20967;-72
2022/05/20 11:30:15;;;;;;;18.97;14.07;;;30.80;99.90;;;;;;5031193;28;21216;-72
2022/05/20 11:33:01;;;;;;;14.00;9.90;;;31.50;99.90;;;;;;5033177;28;21050;-72
2022/05/20 11:35:48;;;;;;;26.17;15.97;;;31.70;99.90;;;;;;5036243;28;20542;-72
2022/05/20 11:38:40;;;;;;;15.20;12.90;;;31.20;99.90;;;;;;5034773;28;20526;-72
2022/05/20 11:41:25;;;;;;;16.40;12.23;;;32.10;99.90;;;;;;5037223;28;20923;-72
2022/05/20 11:44:22;;;;;;;16.37;13.10;;;31.60;99.90;;;;;;5039269;28;20836;-71
2022/05/20 11:47:12;;;;;;;18.23;12.33;;;30.90;99.90;;;;;;5026991;28;20496;-72
2022/05/20 11:49:49;;;;;;;17.10;13.27;;;31.30;99.90;;;;;;5037664;28;20459;-72
2022/05/20 11:52:38;;;;;;;16.47;13.10;;;33.00;99.90;;;;;;5036542;28;20455;-73
2022/05/20 11:55:11;;;;;;;23.87;14.90;;;33.00;99.90;;;;;;5036628;28;20468;-73
2022/05/20 11:57:41;;;;;;;22.50;15.27;;;33.30;99.90;;;;;;5035660;28;20513;-72
2022/05/20 12:00:10;;;;;;;14.20;11.60;;;31.90;99.90;;;;;;5042295;28;20584;-72
2022/05/20 12:02:43;;;;;;;19.07;13.40;;;31.40;99.90;;;;;;5037819;28;20469;-71
2022/05/20 12:05:12;;;;;;;20.20;13.63;;;30.20;99.90;;;;;;5040391;28;20536;-72
2022/05/20 12:07:39;;;;;;;22.00;14.87;;;30.00;99.90;;;;;;5038883;28;20467;-71
2022/05/20 12:10:44;;;;;;;23.73;14.70;;;30.30;99.90;;;;;;5039003;28;20963;-72
2022/05/20 12:13:16;;;;;;;22.93;16.00;;;29.80;99.90;;;;;;4971591;28;20485;-72
2022/05/20 12:15:46;;;;;;;16.20;10.93;;;29.90;99.90;;;;;;5027724;28;20559;-71
2022/05/20 12:24:11;;;;;;;15.90;11.70;;;29.80;99.90;;;;;;5038807;28;20549;-71
2022/05/20 12:24:13;;;;;;;22.00;14.50;;;29.70;99.90;;;;;;5041885;28;21106;-72
2022/05/20 12:26:51;;;;;;;16.47;11.13;;;29.90;99.90;;;;;;5040508;28;20465;-72
2022/05/20 12:30:06;;;;;;;19.03;13.23;;;30.40;99.90;;;;;;5034718;28;20470;-73
2022/05/20 12:32:48;;;;;;;17.83;11.77;;;31.20;99.90;;;;;;5043529;28;20465;-70
2022/05/20 12:35:20;;;;;;;24.53;16.47;;;30.30;99.90;;;;;;5044465;28;20870;-71
2022/05/20 12:38:16;;;;;;;23.40;16.00;;;29.70;99.90;;;;;;5044340;28;20460;-73
2022/05/20 12:40:58;;;;;;;25.10;14.47;;;29.90;99.90;;;;;;5038633;28;20490;-72
2022/05/20 12:43:53;;;;;;;24.10;16.73;;;29.00;99.90;;;;;;5036231;28;20946;-71
2022/05/20 12:46:33;;;;;;;19.73;11.27;;;28.10;99.90;;;;;;5024463;28;20460;-71
2022/05/20 12:49:00;;;;;;;16.43;13.03;;;27.70;99.90;;;;;;5034460;28;20463;-72
2022/05/20 12:51:29;;;;;;;20.83;14.57;;;27.20;99.90;;;;;;5041175;28;20546;-72
2022/05/20 12:53:55;;;;;;;16.50;10.33;;;26.60;99.90;;;;;;5040410;28;20493;-71
2022/05/20 12:56:28;;;;;;;20.17;12.37;;;26.30;99.90;;;;;;5036041;28;21026;-71
2022/05/20 12:59:13;;;;;;;27.60;13.30;;;25.80;99.90;;;;;;5037762;28;20896;-72
2022/05/20 13:01:45;;;;;;;28.40;17.87;;;25.60;99.90;;;;;;5033337;28;20962;-73
2022/05/20 13:04:15;;;;;;;20.83;11.40;;;25.70;99.90;;;;;;5038349;28;20556;-72
2022/05/20 13:06:47;;;;;;;20.00;12.83;;;25.70;99.90;;;;;;5038924;28;20459;-72
2022/05/20 13:09:22;;;;;;;24.27;15.63;;;25.40;99.90;;;;;;5042406;28;20479;-72
2022/05/20 13:11:50;;;;;;;24.27;13.90;;;25.40;99.90;;;;;;5044577;28;20517;-72
2022/05/20 13:14:19;;;;;;;22.97;14.97;;;25.50;99.90;;;;;;5043567;28;20524;-72
2022/05/20 13:16:47;;;;;;;28.23;17.30;;;25.60;99.90;;;;;;5042450;28;20509;-72
2022/05/20 13:19:15;;;;;;;27.97;15.50;;;25.50;99.90;;;;;;5035850;28;20490;-71
2022/05/20 13:21:49;;;;;;;24.70;14.63;;;25.30;99.90;;;;;;5040223;28;20537;-73
2022/05/20 13:24:18;;;;;;;23.80;15.70;;;25.30;99.90;;;;;;5039473;28;20943;-72
2022/05/20 13:26:45;;;;;;;23.07;15.57;;;25.10;99.90;;;;;;5040797;28;20647;-72
2022/05/20 13:29:14;;;;;;;25.63;15.10;;;25.10;99.90;;;;;;5035951;28;21138;-71
2022/05/20 13:31:41;;;;;;;22.90;14.53;;;24.80;99.90;;;;;;5036290;28;20521;-72